Time;durP1;ratioP1;P1;durP2;ratioP2;P2;SDS_P1;SDS_P2;PMS_P1;PMS_P2;Temp;Humidity;BMP_temperature;BMP_pressure;BME280_temperature;BME280_humidity;BME280_pressure;Samples;Min_cycle;Max_cycle;Signal;HPM_P1;HPM_P2
2023/09/09 00:02:13;;;;;;;18.33;16.35;;;;;;;;;;5055757;28;20404;-64
2023/09/09 00:04:40;;;;;;;20.15;18.02;;;;;;;;;;5052665;28;20328;-63
2023/09/09 00:07:06;;;;;;;18.80;16.42;;;22.00;99.10;;;;;;5056258;28;20423;-62
2023/09/09 00:09:32;;;;;;;17.90;15.85;;;21.60;99.80;;;;;;5063479;28;20032;-64
2023/09/09 00:11:58;;;;;;;23.65;16.17;;;21.50;99.60;;;;;;5058230;28;20082;-63
2023/09/09 00:14:25;;;;;;;18.90;17.10;;;21.50;99.60;;;;;;5056160;28;20551;-63
2023/09/09 00:16:51;;;;;;;20.55;18.33;;;21.50;99.70;;;;;;5056442;28;20029;-62
2023/09/09 00:19:21;;;;;;;19.25;17.17;;;21.50;99.70;;;;;;5056693;28;20032;-62
2023/09/09 00:21:47;;;;;;;19.63;17.35;;;21.40;99.70;;;;;;5041231;28;20239;-64
2023/09/09 00:24:13;;;;;;;19.70;17.10;;;21.40;99.80;;;;;;5059698;28;20703;-62
2023/09/09 00:26:38;;;;;;;18.45;15.73;;;21.30;99.90;;;;;;5060402;28;20301;-63
2023/09/09 00:29:04;;;;;;;19.23;16.33;;;21.40;99.90;;;;;;5075284;28;20039;-63
2023/09/09 00:31:30;;;;;;;23.35;18.65;;;21.30;99.80;;;;;;5058904;28;20290;-62
2023/09/09 00:33:56;;;;;;;20.92;17.98;;;21.30;99.90;;;;;;5057698;28;20055;-63
2023/09/09 00:36:21;;;;;;;21.10;17.55;;;21.20;99.90;;;;;;5058932;28;20044;-63
2023/09/09 00:38:47;;;;;;;21.42;19.20;;;21.20;99.90;;;;;;5063515;28;20033;-62
2023/09/09 00:41:15;;;;;;;22.05;19.75;;;21.20;99.90;;;;;;5058973;28;20512;-63
2023/09/09 00:43:41;;;;;;;22.52;19.88;;;21.20;99.90;;;;;;5061127;28;20040;-63
2023/09/09 00:46:08;;;;;;;22.73;19.63;;;21.20;99.90;;;;;;5051530;28;20386;-63
2023/09/09 00:48:34;;;;;;;22.48;20.00;;;21.20;99.90;;;;;;5052759;28;20540;-62
2023/09/09 00:51:00;;;;;;;19.42;16.48;;;21.20;99.90;;;;;;5052378;28;20650;-63
2023/09/09 00:53:27;;;;;;;21.25;18.95;;;21.10;99.90;;;;;;5062163;28;20290;-63
2023/09/09 00:55:54;;;;;;;19.83;17.70;;;21.10;99.90;;;;;;5053145;28;20036;-62
2023/09/09 00:58:20;;;;;;;20.80;18.42;;;21.10;99.90;;;;;;5063217;28;20294;-62
2023/09/09 01:00:46;;;;;;;21.73;18.48;;;21.10;99.90;;;;;;5058339;28;20051;-62
2023/09/09 01:03:12;;;;;;;19.08;16.90;;;21.00;99.90;;;;;;5062215;28;20039;-63
2023/09/09 01:05:38;;;;;;;20.40;18.30;;;21.00;99.90;;;;;;5059425;28;20044;-63
2023/09/09 01:08:04;;;;;;;18.88;16.83;;;21.00;99.90;;;;;;5062693;28;20625;-64
2023/09/09 01:10:30;;;;;;;20.92;18.65;;;21.00;99.90;;;;;;5059288;28;20443;-63
2023/09/09 01:12:57;;;;;;;19.13;17.13;;;21.00;99.90;;;;;;5057402;28;20108;-63
2023/09/09 01:15:23;;;;;;;20.58;17.90;;;;;;;;;;5055763;28;20112;-63
2023/09/09 01:17:52;;;;;;;20.17;17.88;;;;;;;;;;5058949;28;20407;-63
2023/09/09 01:20:19;;;;;;;19.60;17.50;;;;;;;;;;5056534;28;20052;-62
2023/09/09 01:22:48;;;;;;;19.77;17.25;;;;;;;;;;5060146;28;20192;-62
2023/09/09 01:25:14;;;;;;;19.13;16.85;;;;;;;;;;5059265;28;20048;-63
2023/09/09 01:27:41;;;;;;;17.55;15.73;;;;;;;;;;5060953;28;20554;-62
2023/09/09 01:30:08;;;;;;;20.75;17.10;;;;;;;;;;5054095;28;20041;-63
2023/09/09 01:32:34;;;;;;;19.70;17.70;;;;;;;;;;5060784;28;20048;-63
2023/09/09 01:35:04;;;;;;;21.20;18.95;;;20.90;99.90;;;;;;5051660;28;20120;-63
2023/09/09 01:37:30;;;;;;;18.95;16.85;;;20.80;99.90;;;;;;5061441;28;20558;-63
2023/09/09 01:39:56;;;;;;;19.55;17.52;;;20.80;99.90;;;;;;5057617;28;20135;-63
2023/09/09 01:42:22;;;;;;;19.77;16.67;;;20.70;99.90;;;;;;5050310;28;20087;-64
2023/09/09 01:44:48;;;;;;;19.65;17.70;;;20.70;99.90;;;;;;5057581;28;20406;-64
2023/09/09 01:47:13;;;;;;;20.33;18.20;;;20.70;99.90;;;;;;5061249;28;20066;-63
2023/09/09 01:49:41;;;;;;;18.58;16.65;;;20.60;99.90;;;;;;5047704;28;20044;-63
2023/09/09 01:52:08;;;;;;;21.20;18.42;;;20.60;99.90;;;;;;5050747;28;20379;-63
2023/09/09 01:54:34;;;;;;;21.98;19.45;;;20.60;99.90;;;;;;5053428;28;20070;-63
2023/09/09 01:57:01;;;;;;;23.90;19.25;;;20.60;99.90;;;;;;5051995;28;20484;-64
2023/09/09 01:59:26;;;;;;;22.48;20.10;;;20.60;99.90;;;;;;5052185;28;20028;-63
2023/09/09 02:01:53;;;;;;;19.92;17.83;;;20.60;99.90;;;;;;5046201;28;20047;-63
2023/09/09 02:04:20;;;;;;;22.63;20.00;;;20.50;99.90;;;;;;5047191;28;20072;-64
2023/09/09 02:06:46;;;;;;;20.85;18.65;;;20.50;99.90;;;;;;5053645;28;20123;-64
2023/09/09 02:09:12;;;;;;;23.63;20.65;;;20.50;99.90;;;;;;5060644;28;20036;-63
2023/09/09 02:11:38;;;;;;;24.70;19.45;;;20.50;99.90;;;;;;5049752;28;20041;-63
2023/09/09 02:14:04;;;;;;;20.80;18.67;;;20.50;99.90;;;;;;5050616;28;20047;-63
2023/09/09 02:16:30;;;;;;;22.17;19.00;;;20.50;99.90;;;;;;5055565;28;20058;-63
2023/09/09 02:18:55;;;;;;;20.77;18.48;;;20.40;99.90;;;;;;5068291;28;20036;-63
2023/09/09 02:21:21;;;;;;;21.42;18.90;;;20.40;99.90;;;;;;5056479;28;20507;-62
2023/09/09 02:23:47;;;;;;;20.55;18.33;;;20.40;99.90;;;;;;5053381;28;20592;-63
2023/09/09 02:26:12;;;;;;;21.52;19.00;;;20.40;99.90;;;;;;5055504;28;20127;-63
2023/09/09 02:28:38;;;;;;;20.58;18.17;;;20.40;99.90;;;;;;5057379;28;20391;-62
2023/09/09 02:31:04;;;;;;;22.83;19.42;;;20.30;99.90;;;;;;5056551;28;20040;-62
2023/09/09 02:33:30;;;;;;;23.80;20.52;;;20.30;99.90;;;;;;5059779;28;20317;-63
2023/09/09 02:35:59;;;;;;;24.40;20.50;;;20.30;99.90;;;;;;5062381;28;20099;-62
2023/09/09 02:38:26;;;;;;;24.83;22.20;;;20.30;99.90;;;;;;5064598;28;20052;-62
2023/09/09 02:40:52;;;;;;;21.58;19.17;;;20.30;99.90;;;;;;5057963;28;20040;-63
2023/09/09 02:43:18;;;;;;;22.83;20.48;;;20.20;99.90;;;;;;5063239;28;20050;-63
2023/09/09 02:45:43;;;;;;;21.23;18.55;;;20.20;99.90;;;;;;5042890;28;20036;-63
2023/09/09 02:48:09;;;;;;;20.08;17.70;;;20.20;99.90;;;;;;5050870;28;20219;-62
2023/09/09 02:50:35;;;;;;;23.05;18.08;;;20.20;99.90;;;;;;5050117;28;20107;-63
2023/09/09 02:53:01;;;;;;;18.27;16.15;;;20.20;99.90;;;;;;5050559;28;20255;-62
2023/09/09 02:55:27;;;;;;;20.52;18.05;;;20.20;99.90;;;;;;5051506;28;20126;-63
2023/09/09 02:57:53;;;;;;;20.13;17.88;;;20.20;99.90;;;;;;5057030;28;20216;-64
2023/09/09 03:00:19;;;;;;;19.55;16.48;;;20.10;99.90;;;;;;5047262;28;20044;-63
2023/09/09 03:02:45;;;;;;;19.05;17.10;;;20.10;99.90;;;;;;5054166;28;20175;-63
2023/09/09 03:05:11;;;;;;;19.17;17.00;;;20.10;99.90;;;;;;5048967;28;20542;-62
2023/09/09 03:07:37;;;;;;;19.10;16.92;;;20.10;99.90;;;;;;5054429;28;20395;-63
2023/09/09 03:10:04;;;;;;;18.38;15.80;;;20.10;99.90;;;;;;5051778;28;20114;-62
2023/09/09 03:12:30;;;;;;;18.48;15.55;;;20.00;99.90;;;;;;5055110;28;20438;-63
2023/09/09 03:14:56;;;;;;;17.58;15.60;;;20.00;99.90;;;;;;5050890;28;20044;-63
2023/09/09 03:17:21;;;;;;;20.23;15.25;;;20.00;99.90;;;;;;5055757;28;20392;-64
2023/09/09 03:19:47;;;;;;;19.15;15.60;;;19.90;99.90;;;;;;5067391;28;20266;-63
2023/09/09 03:22:13;;;;;;;16.33;14.35;;;19.90;99.90;;;;;;5073673;28;20068;-62
2023/09/09 03:24:39;;;;;;;16.65;14.60;;;19.90;99.90;;;;;;5062837;28;20553;-62
2023/09/09 03:27:04;;;;;;;18.15;15.40;;;19.90;99.90;;;;;;5071123;28;20071;-62
2023/09/09 03:29:30;;;;;;;17.27;15.48;;;19.80;99.90;;;;;;5068026;28;20336;-62
2023/09/09 03:31:56;;;;;;;15.88;14.27;;;19.80;99.90;;;;;;5047198;28;20147;-62
2023/09/09 03:34:22;;;;;;;16.33;14.50;;;19.80;99.90;;;;;;5059080;28;20098;-63
2023/09/09 03:36:47;;;;;;;17.55;15.75;;;19.80;99.90;;;;;;5058768;28;20263;-64
2023/09/09 03:39:13;;;;;;;19.23;16.27;;;19.80;99.90;;;;;;5062004;28;20148;-63
2023/09/09 03:41:39;;;;;;;15.98;14.35;;;19.70;99.90;;;;;;5058300;28;20045;-63
2023/09/09 03:44:05;;;;;;;15.25;13.55;;;19.70;99.90;;;;;;5061332;28;20087;-62
2023/09/09 03:46:31;;;;;;;14.40;12.90;;;19.70;99.90;;;;;;5053784;28;20249;-64
2023/09/09 03:48:57;;;;;;;14.80;13.32;;;19.70;99.90;;;;;;5056362;28;20060;-62
2023/09/09 03:51:23;;;;;;;16.20;14.48;;;19.70;99.90;;;;;;5036071;28;20331;-62
2023/09/09 03:53:48;;;;;;;16.98;15.18;;;19.60;99.90;;;;;;5055044;28;20099;-62
2023/09/09 03:56:18;;;;;;;16.40;14.70;;;19.60;99.90;;;;;;5050185;28;20260;-64
2023/09/09 03:58:44;;;;;;;17.17;15.38;;;19.60;99.90;;;;;;5055665;28;20191;-63
2023/09/09 04:01:12;;;;;;;16.73;15.07;;;19.50;99.90;;;;;;5051743;28;20050;-63
2023/09/09 04:03:38;;;;;;;15.50;13.90;;;19.50;99.90;;;;;;5057665;28;20222;-63
2023/09/09 04:06:07;;;;;;;14.88;13.38;;;19.50;99.90;;;;;;5053967;28;20044;-62
2023/09/09 04:08:35;;;;;;;17.48;15.77;;;19.50;99.90;;;;;;5059156;28;20282;-63
2023/09/09 04:11:01;;;;;;;20.88;16.90;;;19.50;99.90;;;;;;5059255;28;20124;-63
2023/09/09 04:13:27;;;;;;;17.65;15.70;;;19.50;99.90;;;;;;5052618;28;20032;-62
2023/09/09 04:15:54;;;;;;;17.65;15.85;;;19.50;99.90;;;;;;5067331;28;20128;-62
2023/09/09 04:18:20;;;;;;;17.63;15.60;;;19.40;99.90;;;;;;5061424;28;20127;-63
2023/09/09 04:20:46;;;;;;;17.15;15.25;;;19.40;99.90;;;;;;5054072;28;20048;-62
2023/09/09 04:23:11;;;;;;;18.08;16.27;;;19.40;99.90;;;;;;5077554;28;20044;-63
2023/09/09 04:25:38;;;;;;;18.35;16.45;;;19.40;99.90;;;;;;5058370;28;20223;-62
2023/09/09 04:28:05;;;;;;;18.52;16.55;;;19.40;99.90;;;;;;5062846;28;20044;-63
2023/09/09 04:30:31;;;;;;;18.42;16.55;;;19.40;99.90;;;;;;5048534;28;20043;-62
2023/09/09 04:32:58;;;;;;;19.50;17.65;;;19.40;99.90;;;;;;5041660;28;20209;-63
2023/09/09 04:35:24;;;;;;;18.92;17.02;;;19.40;99.90;;;;;;5046766;28;20278;-62
2023/09/09 04:37:50;;;;;;;19.33;17.42;;;19.40;99.90;;;;;;5043049;28;20046;-62
2023/09/09 04:40:16;;;;;;;19.42;17.50;;;19.40;99.90;;;;;;5051108;28;20040;-62
2023/09/09 04:42:42;;;;;;;20.27;18.15;;;19.40;99.90;;;;;;5053972;28;20040;-62
2023/09/09 04:45:09;;;;;;;18.55;16.73;;;19.40;99.90;;;;;;5042017;28;20060;-62
2023/09/09 04:47:34;;;;;;;20.55;18.35;;;19.30;99.90;;;;;;5044909;28;20276;-63
2023/09/09 04:50:00;;;;;;;20.98;18.92;;;19.30;99.90;;;;;;5048958;28;20086;-64
2023/09/09 04:52:26;;;;;;;20.50;18.40;;;19.30;99.90;;;;;;5046750;28;20222;-63
2023/09/09 04:54:52;;;;;;;19.88;17.13;;;19.30;99.90;;;;;;5042513;28;20260;-62
2023/09/09 04:57:18;;;;;;;22.98;20.52;;;19.30;99.90;;;;;;5044595;28;20111;-63
2023/09/09 04:59:43;;;;;;;20.55;18.35;;;19.30;99.90;;;;;;5041225;28;20041;-64
2023/09/09 05:02:09;;;;;;;19.52;17.50;;;19.30;99.90;;;;;;5044844;28;20715;-64
2023/09/09 05:04:35;;;;;;;21.42;18.98;;;19.30;99.90;;;;;;5024847;28;20109;-63
2023/09/09 05:07:01;;;;;;;19.83;17.73;;;19.20;99.90;;;;;;5051747;28;20037;-62
2023/09/09 05:09:27;;;;;;;20.80;18.60;;;19.20;99.90;;;;;;5055268;28;20036;-62
2023/09/09 05:11:53;;;;;;;19.75;17.70;;;19.10;99.90;;;;;;5049969;28;20586;-62
2023/09/09 05:14:19;;;;;;;23.33;20.60;;;19.20;99.90;;;;;;5045250;28;20076;-62
2023/09/09 05:16:44;;;;;;;19.88;17.70;;;19.20;99.90;;;;;;5052286;28;20036;-64
2023/09/09 05:19:10;;;;;;;20.80;18.60;;;19.20;99.90;;;;;;5078215;28;20084;-63
2023/09/09 05:21:36;;;;;;;21.40;19.15;;;19.20;99.90;;;;;;5057666;28;20028;-63
2023/09/09 05:24:02;;;;;;;21.33;18.73;;;19.20;99.90;;;;;;5045684;28;20443;-63
2023/09/09 05:26:28;;;;;;;20.92;18.73;;;19.10;99.90;;;;;;5041693;28;20385;-63
2023/09/09 05:28:54;;;;;;;20.23;18.08;;;19.20;99.90;;;;;;5034116;28;20051;-62
2023/09/09 05:31:19;;;;;;;21.20;18.02;;;19.20;99.90;;;;;;5052047;28;20152;-62
2023/09/09 05:33:45;;;;;;;20.90;18.70;;;19.10;99.90;;;;;;5046258;28;20285;-64
2023/09/09 05:36:11;;;;;;;20.67;18.48;;;19.10;99.90;;;;;;5046440;28;20032;-62
2023/09/09 05:38:37;;;;;;;20.75;18.48;;;19.10;99.90;;;;;;5046949;28;20236;-62
2023/09/09 05:41:03;;;;;;;27.73;20.05;;;19.20;99.90;;;;;;5047309;28;20035;-63
2023/09/09 05:43:30;;;;;;;21.58;19.33;;;19.20;99.90;;;;;;5042423;28;20327;-62
2023/09/09 05:45:56;;;;;;;20.85;18.52;;;19.20;99.90;;;;;;5043732;28;20227;-63
2023/09/09 05:48:22;;;;;;;21.42;18.52;;;19.20;99.90;;;;;;5053521;28;20254;-62
2023/09/09 05:50:49;;;;;;;18.27;16.27;;;19.20;99.90;;;;;;5042048;28;20503;-64
2023/09/09 05:53:14;;;;;;;20.23;18.13;;;19.20;99.90;;;;;;5049878;28;20239;-62
2023/09/09 05:55:40;;;;;;;25.98;16.95;;;19.20;99.90;;;;;;5044411;28;20515;-63
2023/09/09 05:58:07;;;;;;;19.33;17.20;;;19.20;99.90;;;;;;5045926;28;20040;-63
2023/09/09 06:00:33;;;;;;;20.83;18.25;;;19.30;99.90;;;;;;5042625;28;20550;-62
2023/09/09 06:02:58;;;;;;;21.67;17.67;;;19.30;99.90;;;;;;5055041;28;20036;-62
2023/09/09 06:05:24;;;;;;;20.02;17.88;;;19.30;99.90;;;;;;5036563;28;20143;-63
2023/09/09 06:07:50;;;;;;;19.27;16.95;;;19.30;99.90;;;;;;5040838;28;20107;-63
2023/09/09 06:10:16;;;;;;;15.95;14.35;;;19.40;99.90;;;;;;5041636;28;20254;-63
2023/09/09 06:12:42;;;;;;;15.70;14.13;;;19.40;99.90;;;;;;5039960;28;20067;-63
2023/09/09 06:15:08;;;;;;;16.15;14.65;;;19.50;99.90;;;;;;5050458;28;20155;-62
2023/09/09 06:17:36;;;;;;;15.95;14.50;;;19.50;99.90;;;;;;5049088;28;20557;-62
2023/09/09 06:20:01;;;;;;;16.10;14.55;;;19.50;99.90;;;;;;5054149;28;20514;-63
2023/09/09 06:22:27;;;;;;;15.68;14.00;;;19.50;99.90;;;;;;5047408;28;20182;-63
2023/09/09 06:24:53;;;;;;;15.57;14.13;;;;;;;;;;5050083;28;20207;-63
2023/09/09 06:27:19;;;;;;;17.25;15.50;;;19.50;99.90;;;;;;5047726;28;20048;-63
2023/09/09 06:29:45;;;;;;;16.65;15.00;;;19.50;99.90;;;;;;5048000;28;20161;-62
2023/09/09 06:32:10;;;;;;;17.48;15.75;;;19.60;99.90;;;;;;5044984;28;20112;-63
2023/09/09 06:34:36;;;;;;;21.20;18.00;;;19.60;99.90;;;;;;5039099;28;20039;-62
2023/09/09 06:37:02;;;;;;;21.80;19.40;;;19.70;99.90;;;;;;5038291;28;20075;-63
2023/09/09 06:39:28;;;;;;;29.77;26.63;;;;;;;;;;5051458;28;20381;-63
2023/09/09 06:41:54;;;;;;;41.85;34.22;;;;;;;;;;5054452;28;20282;-62
2023/09/09 06:44:20;;;;;;;41.97;35.75;;;;;;;;;;5053214;28;20036;-63
2023/09/09 06:46:46;;;;;;;41.78;33.28;;;19.70;99.90;;;;;;5060977;28;20487;-63
2023/09/09 06:49:12;;;;;;;44.03;37.78;;;19.90;99.90;;;;;;5036596;28;20204;-62
2023/09/09 06:51:38;;;;;;;44.15;38.40;;;;;;;;;;5043216;28;20114;-63
2023/09/09 06:54:04;;;;;;;50.53;42.22;;;;;;;;;;5049645;28;20448;-63
2023/09/09 06:56:30;;;;;;;41.75;37.20;;;;;;;;;;5045821;28;20127;-62
2023/09/09 06:58:56;;;;;;;43.97;36.65;;;;;;;;;;5042309;28;20059;-63
2023/09/09 07:01:22;;;;;;;46.95;41.85;;;19.90;99.90;;;;;;5046359;28;20048;-62
2023/09/09 07:03:48;;;;;;;46.13;40.53;;;20.00;99.90;;;;;;5048691;28;20049;-62
2023/09/09 07:06:16;;;;;;;47.28;39.53;;;20.00;99.90;;;;;;5046149;28;20040;-62
2023/09/09 07:08:43;;;;;;;48.35;39.15;;;20.00;99.90;;;;;;5045140;28;20184;-63
2023/09/09 07:11:09;;;;;;;44.60;38.75;;;20.00;99.90;;;;;;5052056;28;20040;-63
2023/09/09 07:13:35;;;;;;;39.30;35.10;;;20.10;99.90;;;;;;5045852;28;20040;-63
2023/09/09 07:16:00;;;;;;;37.03;33.05;;;20.10;99.90;;;;;;5045270;28;20045;-62
2023/09/09 07:18:26;;;;;;;42.40;36.15;;;20.20;99.90;;;;;;5043836;28;20051;-63
2023/09/09 07:20:52;;;;;;;39.85;35.53;;;;;;;;;;5046167;28;20207;-63
2023/09/09 07:23:18;;;;;;;37.85;33.78;;;;;;;;;;5048985;28;20044;-64
2023/09/09 07:25:47;;;;;;;37.05;33.00;;;;;;;;;;5045756;28;20053;-62
2023/09/09 07:28:13;;;;;;;34.70;30.92;;;;;;;;;;5062136;28;20055;-63
2023/09/09 07:30:39;;;;;;;33.78;30.02;;;;;;;;;;5050968;28;20103;-63
2023/09/09 07:33:06;;;;;;;40.03;35.85;;;;;;;;;;5041266;28;20125;-64
2023/09/09 07:35:35;;;;;;;40.28;35.92;;;20.20;99.90;;;;;;5044771;28;20059;-64
2023/09/09 07:38:06;;;;;;;40.40;36.13;;;20.60;99.90;;;;;;5047124;28;20048;-63
2023/09/09 07:40:32;;;;;;;44.20;38.63;;;20.70;99.90;;;;;;5043220;28;20044;-63
2023/09/09 07:42:58;;;;;;;46.70;41.65;;;20.80;99.90;;;;;;5046113;28;20294;-63
2023/09/09 07:45:26;;;;;;;49.92;44.42;;;;;;;;;;5046734;28;20083;-64
2023/09/09 07:47:51;;;;;;;47.85;40.83;;;20.80;99.90;;;;;;5040473;28;20103;-64
2023/09/09 07:50:17;;;;;;;51.80;45.05;;;21.00;99.90;;;;;;5038275;28;20056;-63
2023/09/09 07:52:43;;;;;;;41.97;35.45;;;21.00;99.90;;;;;;5037095;28;20075;-63
2023/09/09 07:55:09;;;;;;;47.67;42.58;;;21.10;99.90;;;;;;5045801;28;20123;-62
2023/09/09 07:57:35;;;;;;;49.53;41.03;;;21.10;99.90;;;;;;5047392;28;20225;-63
2023/09/09 08:00:01;;;;;;;56.53;47.03;;;;;;;;;;5043625;28;20044;-62
2023/09/09 08:02:27;;;;;;;52.10;42.65;;;;;;;;;;5059124;28;20447;-63
2023/09/09 08:04:55;;;;;;;59.85;51.67;;;;;;;;;;5049442;28;20199;-62
2023/09/09 08:07:21;;;;;;;59.35;47.75;;;21.20;99.90;;;;;;5073363;28;20277;-63
2023/09/09 08:09:47;;;;;;;55.10;47.53;;;21.50;99.90;;;;;;5049299;28;20072;-63
2023/09/09 08:12:13;;;;;;;53.42;46.33;;;;;;;;;;5062547;28;20151;-63
2023/09/09 08:14:42;;;;;;;53.10;46.83;;;21.60;99.90;;;;;;5055002;28;20141;-63
2023/09/09 08:17:08;;;;;;;56.60;46.83;;;21.70;99.90;;;;;;5061100;28;20526;-63
2023/09/09 08:19:34;;;;;;;52.60;44.08;;;21.80;99.90;;;;;;5055793;28;20597;-62
2023/09/09 08:21:59;;;;;;;50.13;44.50;;;21.90;99.90;;;;;;5050113;28;20139;-63
2023/09/09 08:24:25;;;;;;;52.47;45.58;;;;;;;;;;5051337;28;20040;-64
2023/09/09 08:26:52;;;;;;;53.67;45.58;;;;;;;;;;5047862;28;20110;-63
2023/09/09 08:29:18;;;;;;;54.90;44.85;;;;;;;;;;5050417;28;20227;-64
2023/09/09 08:31:47;;;;;;;51.95;45.38;;;21.90;99.90;;;;;;5053803;28;20372;-63
2023/09/09 08:34:14;;;;;;;60.28;51.08;;;22.30;99.90;;;;;;5036311;28;20172;-63
2023/09/09 08:36:40;;;;;;;59.80;48.63;;;;;;;;;;5046759;28;20607;-63
2023/09/09 08:39:05;;;;;;;63.33;52.65;;;22.40;99.90;;;;;;5050870;28;20302;-63
2023/09/09 08:41:39;;;;;;;54.63;48.53;;;22.50;99.90;;;;;;5045692;28;20037;-64
2023/09/09 08:44:08;;;;;;;52.35;43.80;;;;;;;;;;5046694;28;20111;-64
2023/09/09 08:46:35;;;;;;;46.83;40.05;;;;;;;;;;5048435;28;20058;-64
2023/09/09 08:49:04;;;;;;;51.90;41.67;;;;;;;;;;5044894;28;20052;-63
2023/09/09 08:51:34;;;;;;;39.25;33.72;;;;;;;;;;5048262;28;20074;-63
2023/09/09 08:54:02;;;;;;;39.63;33.47;;;22.60;99.90;;;;;;5050541;28;20032;-64
2023/09/09 08:56:28;;;;;;;37.35;29.85;;;23.10;99.90;;;;;;5042929;28;20231;-64
2023/09/09 08:58:54;;;;;;;37.78;28.58;;;;;;;;;;5044782;28;20313;-62
2023/09/09 09:01:21;;;;;;;36.85;29.65;;;;;;;;;;5040774;28;20425;-63
2023/09/09 09:03:50;;;;;;;29.80;26.05;;;;;;;;;;5046965;28;20143;-62
2023/09/09 09:06:16;;;;;;;35.30;28.52;;;23.10;99.90;;;;;;5047841;28;20171;-64
2023/09/09 09:08:42;;;;;;;30.92;25.92;;;;;;;;;;5046151;28;20559;-63
2023/09/09 09:11:10;;;;;;;31.73;25.75;;;;;;;;;;5048703;28;20352;-63
2023/09/09 09:13:36;;;;;;;30.88;26.95;;;;;;;;;;5052595;28;20040;-63
2023/09/09 09:16:02;;;;;;;27.77;23.70;;;;;;;;;;5056208;28;20029;-64
2023/09/09 09:18:29;;;;;;;26.83;22.02;;;;;;;;;;5061304;28;20036;-62
2023/09/09 09:21:05;;;;;;;23.10;17.17;;;;;;;;;;5055006;28;20056;-62
2023/09/09 09:23:31;;;;;;;20.88;17.77;;;;;;;;;;5041559;28;20538;-63
2023/09/09 09:25:57;;;;;;;18.88;16.02;;;;;;;;;;5057830;28;20174;-62
2023/09/09 09:28:27;;;;;;;17.67;14.98;;;;;;;;;;5050601;28;20123;-62
2023/09/09 09:30:53;;;;;;;20.83;16.83;;;;;;;;;;5056992;28;20095;-64
2023/09/09 09:33:26;;;;;;;17.95;14.77;;;;;;;;;;5042192;28;20593;-64
2023/09/09 09:35:52;;;;;;;19.52;15.68;;;;;;;;;;5042625;28;20052;-63
2023/09/09 09:38:18;;;;;;;21.10;15.55;;;23.40;99.90;;;;;;5040601;28;20500;-62
2023/09/09 09:40:44;;;;;;;23.13;18.83;;;24.70;99.90;;;;;;5013142;28;20039;-62
2023/09/09 09:43:20;;;;;;;27.85;20.80;;;24.70;99.90;;;;;;5040580;28;20101;-64
2023/09/09 09:45:47;;;;;;;23.98;20.30;;;;;;;;;;5067027;28;20703;-64
2023/09/09 09:48:25;;;;;;;22.23;16.55;;;;;;;;;;5049783;28;20585;-63
2023/09/09 09:50:54;;;;;;;16.98;14.60;;;;;;;;;;5040500;28;20681;-62
2023/09/09 09:53:20;;;;;;;17.58;14.23;;;;;;;;;;5047733;28;20408;-64
2023/09/09 09:55:47;;;;;;;15.85;14.13;;;;;;;;;;5041336;28;20301;-63
2023/09/09 09:58:14;;;;;;;14.15;12.18;;;;;;;;;;5049154;28;20049;-63
2023/09/09 10:00:40;;;;;;;11.38;10.20;;;;;;;;;;5046568;28;20044;-62
2023/09/09 10:03:07;;;;;;;25.02;13.13;;;;;;;;;;5041325;28;20325;-63
2023/09/09 10:05:34;;;;;;;15.15;12.20;;;;;;;;;;5050199;28;20542;-62
2023/09/09 10:08:03;;;;;;;17.95;14.45;;;;;;;;;;5019908;28;20144;-64
2023/09/09 10:10:33;;;;;;;17.98;11.68;;;24.80;99.70;;;;;;5055246;28;20081;-64
2023/09/09 10:13:04;;;;;;;18.30;13.50;;;25.80;98.00;;;;;;5026971;28;20159;-64
2023/09/09 10:15:33;;;;;;;14.27;11.38;;;25.80;97.60;;;;;;5028838;28;20123;-65
2023/09/09 10:18:00;;;;;;;13.23;10.18;;;25.90;97.40;;;;;;5046445;28;20207;-63
2023/09/09 10:20:26;;;;;;;15.18;11.95;;;;;;;;;;5067434;28;20076;-64
2023/09/09 10:22:59;;;;;;;12.38;11.10;;;;;;;;;;5049710;28;20115;-63
2023/09/09 10:25:26;;;;;;;12.73;10.02;;;;;;;;;;5053140;28;20183;-63
2023/09/09 10:27:52;;;;;;;10.88;7.82;;;;;;;;;;5056492;28;20105;-63
2023/09/09 10:30:19;;;;;;;8.77;7.88;;;;;;;;;;5048574;28;20681;-64
2023/09/09 10:32:45;;;;;;;11.65;8.38;;;;;;;;;;5043118;28;20431;-64
2023/09/09 10:35:12;;;;;;;9.35;7.65;;;26.00;97.50;;;;;;5042021;28;20041;-64
2023/09/09 10:37:38;;;;;;;11.35;7.57;;;;;;;;;;5049760;28;20355;-63
2023/09/09 10:40:05;;;;;;;14.55;7.72;;;;;;;;;;5048377;28;20600;-63
2023/09/09 10:42:32;;;;;;;9.25;7.75;;;;;;;;;;5041235;28;20032;-64
2023/09/09 10:45:18;;;;;;;9.93;7.07;;;;;;;;;;5052939;28;20389;-64
2023/09/09 10:48:01;;;;;;;14.98;8.43;;;26.60;96.00;;;;;;5051359;28;20234;-63
2023/09/09 10:50:40;;;;;;;55.42;23.05;;;26.90;95.00;;;;;;5050373;28;20620;-63
2023/09/09 10:53:32;;;;;;;17.90;11.38;;;;;;;;;;5053482;28;20395;-64
2023/09/09 10:56:00;;;;;;;14.68;10.00;;;;;;;;;;5043228;28;20432;-62
2023/09/09 10:58:33;;;;;;;12.73;9.35;;;;;;;;;;5044642;28;20032;-64
2023/09/09 11:01:00;;;;;;;9.85;7.60;;;;;;;;;;5045730;28;20543;-62
2023/09/09 11:03:38;;;;;;;9.50;7.45;;;;;;;;;;5049899;28;20040;-63
2023/09/09 11:06:05;;;;;;;9.45;8.43;;;;;;;;;;5049065;28;20190;-64
2023/09/09 11:08:41;;;;;;;11.90;8.32;;;;;;;;;;5058659;28;20049;-63
2023/09/09 11:11:17;;;;;;;8.90;7.25;;;;;;;;;;5050251;28;20032;-63
2023/09/09 11:13:43;;;;;;;10.68;7.28;;;;;;;;;;5046238;28;20080;-63
2023/09/09 11:16:28;;;;;;;7.93;5.97;;;;;;;;;;5061184;28;20237;-64
2023/09/09 11:18:54;;;;;;;12.32;7.78;;;;;;;;;;5036738;28;20358;-64
2023/09/09 11:21:22;;;;;;;7.53;6.30;;;;;;;;;;5055656;28;20144;-65
2023/09/09 11:23:48;;;;;;;8.80;5.95;;;;;;;;;;5046144;28;20040;-66
2023/09/09 11:26:16;;;;;;;9.90;7.03;;;;;;;;;;5023216;28;20088;-64
2023/09/09 11:28:45;;;;;;;8.32;6.68;;;;;;;;;;5047888;28;20205;-64
2023/09/09 11:31:11;;;;;;;10.40;7.32;;;;;;;;;;5041768;28;20179;-64
2023/09/09 11:33:38;;;;;;;8.05;6.05;;;;;;;;;;5042789;28;20428;-64
2023/09/09 11:36:05;;;;;;;7.28;6.55;;;;;;;;;;5070092;28;20215;-65
2023/09/09 11:38:34;;;;;;;8.40;7.18;;;;;;;;;;5052006;28;20088;-65
2023/09/09 11:41:00;;;;;;;8.10;6.82;;;;;;;;;;5059304;28;20081;-65
2023/09/09 11:43:27;;;;;;;9.55;7.30;;;;;;;;;;5062311;28;20036;-63
2023/09/09 11:45:56;;;;;;;10.07;7.35;;;;;;;;;;5060287;28;20136;-64
2023/09/09 11:48:25;;;;;;;12.82;8.43;;;;;;;;;;5053306;28;20507;-63
2023/09/09 11:50:51;;;;;;;7.75;5.80;;;;;;;;;;5048941;28;20251;-64
2023/09/09 11:53:20;;;;;;;8.73;7.00;;;;;;;;;;5055371;28;20041;-64
2023/09/09 11:55:52;;;;;;;7.75;6.05;;;;;;;;;;5051424;28;20040;-63
2023/09/09 11:58:18;;;;;;;9.07;6.70;;;;;;;;;;5048666;28;20507;-63
2023/09/09 12:00:44;;;;;;;8.43;6.57;;;;;;;;;;5042398;28;20044;-64
2023/09/09 12:03:19;;;;;;;6.88;6.00;;;27.00;94.40;;;;;;5056705;28;20202;-64
2023/09/09 12:05:45;;;;;;;8.45;6.75;;;;;;;;;;5056006;28;20590;-62
2023/09/09 12:08:13;;;;;;;8.52;6.50;;;;;;;;;;5061818;28;20124;-64
2023/09/09 12:10:39;;;;;;;8.23;5.75;;;;;;;;;;5051141;28;20557;-63
2023/09/09 12:13:06;;;;;;;10.23;6.72;;;;;;;;;;5052208;28;20194;-63
2023/09/09 12:15:32;;;;;;;10.60;7.53;;;;;;;;;;5054733;28;20064;-63
2023/09/09 12:18:00;;;;;;;7.13;6.43;;;;;;;;;;5053841;28;20051;-63
2023/09/09 12:20:26;;;;;;;8.00;7.20;;;;;;;;;;5054741;28;20097;-63
2023/09/09 12:22:52;;;;;;;10.55;5.90;;;;;;;;;;5053074;28;20118;-63
2023/09/09 12:25:29;;;;;;;8.25;6.82;;;;;;;;;;5052692;28;20552;-63
2023/09/09 12:27:55;;;;;;;7.70;6.53;;;;;;;;;;5056273;28;20287;-63
2023/09/09 12:30:39;;;;;;;8.68;5.57;;;;;;;;;;5052923;28;20043;-64
2023/09/09 12:33:06;;;;;;;8.48;6.80;;;;;;;;;;5046658;28;20052;-63
2023/09/09 12:35:33;;;;;;;14.07;6.65;;;;;;;;;;5055967;28;20617;-63
2023/09/09 12:37:59;;;;;;;6.78;5.25;;;;;;;;;;5053738;28;20076;-63
2023/09/09 12:40:26;;;;;;;6.93;5.78;;;;;;;;;;5049916;28;20075;-64
2023/09/09 12:42:55;;;;;;;6.78;5.55;;;;;;;;;;5064755;28;20048;-65
2023/09/09 12:45:23;;;;;;;9.93;5.63;;;;;;;;;;5058594;28;20563;-63
2023/09/09 12:47:51;;;;;;;6.60;5.38;;;;;;;;;;5065386;28;20350;-63
2023/09/09 12:50:17;;;;;;;9.38;5.78;;;;;;;;;;5052943;28;20052;-63
2023/09/09 12:52:46;;;;;;;9.82;6.70;;;28.80;91.10;;;;;;5055282;28;20058;-64
2023/09/09 12:55:14;;;;;;;9.25;5.65;;;29.90;85.60;;;;;;5054183;28;20258;-63
2023/09/09 12:57:40;;;;;;;6.78;5.72;;;29.90;85.00;;;;;;5054876;28;20040;-64
2023/09/09 13:00:06;;;;;;;7.10;5.05;;;29.80;85.40;;;;;;5051561;28;20620;-63
2023/09/09 13:02:32;;;;;;;10.68;5.40;;;29.80;84.80;;;;;;5038701;28;20041;-64
2023/09/09 13:04:58;;;;;;;11.25;5.97;;;29.90;85.00;;;;;;5036432;28;20400;-63
2023/09/09 13:07:24;;;;;;;6.63;4.88;;;29.90;85.00;;;;;;5053797;28;20041;-63